Tiempo atmosférico en la estación meteorológica de Alcalá del Júcar, Albacete (680 m.)



Fecha
DESCASC
Temp. máxima en grados centígrados (hora)
DESCASC
Temp. mínima en grados centígrados (hora)
DESCASC
Temp. media en grados centígrados
DESCASC
Racha de viento máxima en m/sg (hora)
DESCASC
Velocidad máxima media en intervalos de 10 minutos(hora)
DESCASC
Precipitaciones diarias en mm
DESCASC
Precipitaciones de 00:00 a 06:00 en mm
DESCASC
Precipitaciones de 06:00 a 12:00 en mm
DESCASC
Precipitaciones de 12:00 a 18:00 en mm
DESCASC
Precipitaciones de 18:00 a 24:00 en mm
DESCASC
18-08-2019 37.8 (18:00) 19.6 (07:30) 28.7 9.17 (16:50) 4.44 (16:50) 0 0 0 0 0
17-08-2019 38.5 (16:50) 18.3 (08:00) 28.4 9.44 (21:20) 4.72 (22:00) 0 0 0 0 0
16-08-2019 37 (17:00) 18.2 (07:30) 27.6 10.56 (21:00) 5 (21:30) 0 0 0 0 0
15-08-2019 36.7 (17:00) 17.7 (00:00) 27.2 11.11 (20:50) 5.83 (20:40) 0 0 0 0 0
14-08-2019 34.3 (17:00) 16.5 (00:00) 25.4 7.78 (15:10) 3.61 (15:50) 0 0 0 0 0
13-08-2019 29.3 (15:20) 19.4 (00:00) 24.3 8.89 (15:30) 4.72 (20:00) 0 0 0 0 0
12-08-2019 32.3 (17:20) 16.9 (00:00) 24.6 8.61 (19:10) 4.72 (19:10) 0 0 0 0 0
11-08-2019 33.4 (17:10) 20.3 (00:00) 26.9 10.56 (17:00) 5.28 (14:50) 0 0 0 0 0
10-08-2019 35.6 (17:10) 20.6 (00:00) 28.1 9.17 (20:50) 5.28 (20:40) 0 0 0 0 0
09-08-2019 36.1 (16:50) 19.8 (00:00) 27.9 10 (17:30) 5.56 (13:10) 0 0 0 0 0
08-08-2019 35.4 (17:00) 19.8 (00:00) 27.6 8.06 (14:00) 4.44 (14:00) 0 0 0 0 0
07-08-2019 34.8 (15:10) 20.2 (00:00) 27.5 10 (14:50) 5.56 (15:20) 0 0 0 0 0
06-08-2019 37.8 (17:10) 19.8 (00:00) 28.8 8.61 (20:10) 4.72 (20:10) 0 0 0 0 0
05-08-2019 38 (17:10) 18.9 (00:00) 28.4 9.44 (20:10) 5.56 (20:10) 0 0 0 0 0
04-08-2019 37.4 (16:50) 18.8 (00:00) 28.1 8.61 (21:20) 3.89 (21:30) 0 0 0 0 0
03-08-2019 36.9 (17:00) 18.4 (00:00) 27.7 8.33 (17:50) 4.17 (20:00) 0 0 0 0 0
02-08-2019 36.8 (17:50) 17.7 (00:00) 27.3 10 (16:50) 4.17 (20:50) 0 0 0 0 0
01-08-2019 35.4 (17:30) 16.9 (00:00) 26.2 7.5 (02:20) 3.61 (02:50) 0 0 0 0 0
31-07-2019 29.3 (14:50) 18.8 (00:00) 24 11.11 (17:30) 4.72 (14:00) 0 0 0 0 0
30-07-2019 35.2 (15:50) 18.5 (00:00) 26.9 9.44 (16:10) 5.28 (18:50) 0 0 0 0 0
29-07-2019 34.3 (18:00) 17.3 (00:00) 25.8 8.61 (19:40) 4.17 (19:20) 0 0 0 0 0
28-07-2019 31.2 (16:50) 15.2 (00:00) 23.2 13.61 (16:50) 4.72 (00:20) 0 0 0 0 0
27-07-2019 29.3 (17:50) 17.2 (00:00) 23.3 15.56 (19:40) 7.78 (15:00) 0 0 0 0 0
26-07-2019 34.2 (16:10) 19.9 (00:00) 27.1 11.39 (19:00) 6.11 (18:50) 0 0 0 0 0
25-07-2019 37.6 (16:20) 19 (00:00) 28.3 9.44 (15:40) 5 (20:20) 0 0 0 0 0
24-07-2019 38 (16:30) 19.1 (00:00) 28.6 10.83 (20:10) 5.56 (19:50) 0 0 0 0 0

Gráficas

Temp. máximas Temp. mínimas Temp. medias Precipitaciones Rachas de viento máximas Velocidades máximas media en intervalos de 10 minutos

Datos horarios

Fecha y hora oficial Temperatura (ºC) Velocidad del viento (km/h) Dirección del viento Racha (km/h) Dirección de racha Precipitación (mm) Presión (hPa) Tendencia (hPa) Humedad (%)
2019-08-22 23:00:00 21.7 6 Nordeste 23 Sudeste 0 -- -- 50
2019-08-22 22:00:00 23.6 11 Este 31 Sudeste 0 -- -- 47
2019-08-22 21:00:00 25.3 14 Sudeste 27 Sudeste 0 -- -- 41
2019-08-22 20:00:00 27.6 14 Sudeste 28 Sudeste 0 -- -- 37
2019-08-22 19:00:00 28.9 10 Este 31 Este 0 -- -- 33
2019-08-22 18:00:00 30.5 12 Este 31 Sudeste 0 -- -- 32
2019-08-22 17:00:00 30.8 9 Este 24 Sudeste 0 -- -- 33
2019-08-22 16:00:00 30.7 10 Sudeste 25 Sudeste 0 -- -- 34
2019-08-22 15:00:00 29.9 8 Sur 21 Sur 0 -- -- 37
2019-08-22 14:00:00 28.8 9 Sur 22 Sur 0 -- -- 40
2019-08-22 13:00:00 26.8 7 Sudeste 21 Sudeste 0 -- -- 49
2019-08-22 12:00:00 23.4 7 Nordeste 17 Nordeste 0 -- -- 62
2019-08-22 11:00:00 20.8 5 Nordeste 12 Nordeste 0 -- -- 73
2019-08-22 10:00:00 16.8 5 Nordeste 9 Nordeste 0 -- -- 93
2019-08-22 09:00:00 14.5 4 Este 8 Sudeste 0 -- -- 94
2019-08-22 08:00:00 13.7 2 Nordeste 8 Nordeste 0 -- -- 94
2019-08-22 07:00:00 14.2 2 Norte 5 Nordeste 0 -- -- 93
2019-08-22 06:00:00 14.7 0 Calma 4 Norte 0 -- -- 92
2019-08-22 05:00:00 15.7 4 Sudeste 8 Este 0 -- -- 92
2019-08-22 04:00:00 15.8 2 Este 5 Este 0 -- -- 91
2019-08-22 03:00:00 15.7 0 Calma 6 Nordeste 0 -- -- 90
2019-08-22 02:00:00 16.7 0 Calma 6 Sudoeste 0 -- -- 89
2019-08-22 01:00:00 17 3 Oeste 8 Noroeste 0.2 -- -- 88
2019-08-22 00:00:00 17.5 0 Calma 13 Nordeste 0 -- -- 87
2019-08-21 23:00:00 17.9 7 Nordeste 18 Sudeste 0 -- -- 86
2019-08-21 22:00:00 18.5 5 Este 18 Nordeste 0 -- -- 87
2019-08-21 21:00:00 19.1 10 Nordeste 21 Nordeste 0 -- -- 86
2019-08-21 20:00:00 20.1 10 Nordeste 21 Nordeste 0 -- -- 82
2019-08-21 19:00:00 20.7 9 Nordeste 28 Sudeste 0 -- -- 76
2019-08-21 18:00:00 20.8 10 Sudeste 22 Sudeste 0 -- -- 82
2019-08-21 17:00:00 20.9 8 Nordeste 20 Nordeste 0 -- -- 76
2019-08-21 16:00:00 20 6 Este 23 Sudeste 0 -- -- 83
2019-08-21 15:00:00 20.3 5 Este 26 Sudeste 2.4 -- -- 82
2019-08-21 14:00:00 22.6 13 Sudeste 27 Sur 0 -- -- 64
2019-08-21 13:00:00 22.4 12 Sudeste 24 Sudeste 0 -- -- 65
2019-08-21 12:00:00 21.8 9 Este 22 Sudeste 0 -- -- 65
2019-08-21 11:00:00 21 11 Sudeste 30 Sudeste 0.2 -- -- 73
2019-08-21 10:00:00 20.1 9 Este 28 Sudeste 0.2 -- -- 77
2019-08-21 09:00:00 19.7 8 Este 29 Este 0 -- -- 76
2019-08-21 08:00:00 19.5 10 Este 27 Este 0 -- -- 79
2019-08-21 07:00:00 19.5 10 Este 30 Sudeste 0 -- -- 81
2019-08-21 06:00:00 19.7 12 Sudeste 26 Sudeste 0 -- -- 82
2019-08-21 05:00:00 19.8 6 Este 19 Nordeste 0 -- -- 80
2019-08-21 04:00:00 19.8 7 Este 22 Este 0 -- -- 79
2019-08-21 03:00:00 19.8 6 Este 25 Este 0 -- -- 79
2019-08-21 02:00:00 19.6 10 Este 29 Sudeste 0 -- -- 80
2019-08-21 01:00:00 19.9 11 Este 34 Este 0 -- -- 79
2019-08-21 00:00:00 20.2 8 Este 26 Este 0 -- -- 76
2019-08-20 23:00:00 20.3 10 Este 38 Este 0 -- -- 74
2019-08-20 22:00:00 20.3 13 Este 42 Este 0 -- -- 71
2019-08-20 21:00:00 20.5 14 Este 36 Este 0 -- -- 66
2019-08-20 20:00:00 21.2 12 Este 42 Sudeste 0 -- -- 64
2019-08-20 19:00:00 21.5 17 Este 41 Este 0 -- -- 69
2019-08-20 18:00:00 22.9 18 Este 53 Sudeste 0 -- -- 68
2019-08-20 17:00:00 25.9 21 Este 46 Este 0 -- -- 62
2019-08-20 16:00:00 27.1 20 Este 46 Sudeste 0 -- -- 59
2019-08-20 15:00:00 31.3 10 Este 27 Sudeste 0 -- -- 43
2019-08-20 14:00:00 29.9 9 Este 26 Sudeste 0 -- -- 47
2019-08-20 13:00:00 28.6 12 Sudeste 23 Sudeste 0 -- -- 51
2019-08-20 12:00:00 27.4 5 Este 16 Este 0 -- -- 54
2019-08-20 11:00:00 26.7 7 Este 22 Sudeste 0 -- -- 59
2019-08-20 10:00:00 23.7 9 Sudeste 17 Sudeste 0 -- -- 74
2019-08-20 09:00:00 21.3 5 Este 16 Nordeste 0 -- -- 84
2019-08-20 08:00:00 19.8 6 Nordeste 17 Nordeste 0 -- -- 86
2019-08-20 07:00:00 19.8 7 Nordeste 15 Este 0 -- -- 83
2019-08-20 06:00:00 20.6 4 Este 15 Sudeste 0 -- -- 82
2019-08-20 05:00:00 20.7 4 Este 12 Este 0 -- -- 81
2019-08-20 04:00:00 20.9 5 Este 9 Este 0 -- -- 80
2019-08-20 03:00:00 21 3 Este 17 Este 0 -- -- 79
2019-08-20 02:00:00 21.8 9 Este 19 Este 0 -- -- 76
2019-08-20 01:00:00 22.3 9 Este 19 Sudeste 0 -- -- 74
2019-08-20 00:00:00 22.9 8 Este 20 Este 0 -- -- 74
2019-08-19 23:00:00 23.5 9 Este 24 Sudeste 0 -- -- 74
2019-08-19 22:00:00 24.3 9 Este 35 Este 0 -- -- 70
2019-08-19 21:00:00 25.6 15 Este 33 Sudeste 0 -- -- 67
2019-08-19 20:00:00 28.1 16 Sudeste 32 Sudeste 0 -- -- 58
2019-08-19 19:00:00 30 13 Este 36 Sudeste 0 -- -- 52
2019-08-19 18:00:00 32.6 14 Sudeste 33 Sudeste 0 -- -- 42
2019-08-19 17:00:00 33.5 13 Este 32 Este 0 -- -- 40
2019-08-19 16:00:00 34.3 12 Este 28 Este 0 -- -- 37
2019-08-19 15:00:00 34.7 9 Este 26 Sudeste 0 -- -- 36
2019-08-19 14:00:00 34.2 6 Sudeste 16 Este 0 -- -- 24
2019-08-19 13:00:00 32.2 5 Sudeste 15 Sudeste 0 -- -- 24
2019-08-19 12:00:00 29.8 4 Sur 12 Sudeste 0 -- -- 27
2019-08-19 11:00:00 26.9 3 Sudoeste 6 Sudoeste 0 -- -- 29
2019-08-19 10:00:00 24.2 2 Oeste 9 Sudoeste 0 -- -- 33
2019-08-19 09:00:00 20.8 0 Calma 5 Oeste 0 -- -- 36
2019-08-19 08:00:00 20 3 Oeste 8 Oeste 0 -- -- 34
2019-08-19 07:00:00 20.5 4 Oeste 12 Oeste 0 -- -- 31
2019-08-19 06:00:00 21.1 6 Oeste 17 Oeste 0 -- -- 34
2019-08-19 05:00:00 21.9 10 Oeste 16 Oeste 0 -- -- 34
2019-08-19 04:00:00 23.1 7 Oeste 12 Oeste 0 -- -- 34
2019-08-19 03:00:00 24.4 6 Oeste 14 Oeste 0 -- -- 36
2019-08-19 02:00:00 26.3 8 Oeste 15 Oeste 0 -- -- 37
2019-08-19 01:00:00 27.7 8 Sudoeste 16 Sudoeste 0 -- -- 36
2019-08-19 00:00:00 29.1 8 Oeste 18 Sur 0 -- -- 36
2019-08-18 23:00:00 29.6 8 Sudoeste 24 Sur 0 -- -- 35
2019-08-18 22:00:00 31 11 Sur 29 Sudoeste 0 -- -- 34
2019-08-18 21:00:00 33.4 12 Sudoeste 29 Sudoeste 0 -- -- 31
2019-08-18 20:00:00 35 3 Noroeste 18 Norte 0 -- -- 19
2019-08-18 19:00:00 35.8 3 Sudoeste 28 Noroeste 0 -- -- 19
2019-08-18 18:00:00 37.8 10 Norte 23 Oeste 0 -- -- 17
2019-08-18 17:00:00 37.3 8 Oeste 33 Oeste 0 -- -- 19
2019-08-18 16:00:00 37.4 8 Oeste 27 Norte 0 -- -- 19
2019-08-18 15:00:00 36.6 10 Oeste 22 Noroeste 0 -- -- 21
2019-08-18 14:00:00 35.6 9 Oeste 23 Noroeste 0 -- -- 20
2019-08-18 13:00:00 33.6 10 Oeste 21 Oeste 0 -- -- 23
2019-08-18 12:00:00 31.2 8 Oeste 19 Noroeste 0 -- -- 30
2019-08-18 11:00:00 28 7 Oeste 14 Sudoeste 0 -- -- 40
2019-08-18 10:00:00 24 3 Sudoeste 7 Sudoeste 0 -- -- 65
2019-08-18 09:00:00 20.7 3 Nordeste 8 Nordeste 0 -- -- 82
2019-08-18 08:00:00 19.8 3 Este 7 Este 0 -- -- 83
2019-08-18 07:00:00 19.9 4 Nordeste 10 Nordeste 0 -- -- 82
2019-08-18 06:00:00 20.2 5 Nordeste 11 Nordeste 0 -- -- 80
2019-08-18 05:00:00 21 6 Nordeste 13 Nordeste 0 -- -- 77
2019-08-18 04:00:00 22.1 6 Nordeste 14 Nordeste 0 -- -- 70
2019-08-18 03:00:00 23.4 5 Nordeste 14 Nordeste 0 -- -- 61
2019-08-18 02:00:00 24.4 7 Nordeste 15 Nordeste 0 -- -- 60
2019-08-18 01:00:00 26.8 7 Nordeste 14 Sur 0 -- -- 53
2019-08-18 00:00:00 28.8 10 Sur 23 Sudoeste 0 -- -- 38
2019-08-17 23:00:00 29.7 13 Sur 27 Sudoeste 0 -- -- 39
2019-08-17 22:00:00 31 17 Sur 34 Sur 0 -- -- 35
2019-08-17 21:00:00 32.8 15 Sur 32 Sur 0 -- -- 32
2019-08-17 20:00:00 35.2 5 Noroeste 15 Noroeste 0 -- -- 21
2019-08-17 19:00:00 36.2 3 Sudoeste 22 Noroeste 0 -- -- 21
2019-08-17 18:00:00 37.9 11 Oeste 23 Oeste 0 -- -- 19
2019-08-17 17:00:00 38.3 10 Oeste 23 Oeste 0 -- -- 20
2019-08-17 16:00:00 37.7 12 Oeste 25 Oeste 0 -- -- 20
2019-08-17 15:00:00 36.9 11 Sudoeste 21 Sudoeste 0 -- -- 23
2019-08-17 14:00:00 35.3 7 Sudoeste 14 Oeste 0 -- -- 26
2019-08-17 13:00:00 33 6 Noroeste 14 Oeste 0 -- -- 31
2019-08-17 12:00:00 30.2 5 Sudoeste 14 Noroeste 0 -- -- 37
2019-08-17 11:00:00 27.1 4 Sur 9 Noroeste 0 -- -- 47
2019-08-17 10:00:00 22.7 3 Sudoeste 6 Sudoeste 0 -- -- 69
2019-08-17 09:00:00 19.4 2 Este 5 Este 0 -- -- 82
2019-08-17 08:00:00 18.3 0 Calma 4 Nordeste 0 -- -- 82
2019-08-17 07:00:00 18.7 0 Calma 3 Este 0 -- -- 84
2019-08-17 06:00:00 19.3 0 Calma 6 Nordeste 0 -- -- 83
2019-08-17 05:00:00 19.7 5 Nordeste 12 Nordeste 0 -- -- 83
2019-08-17 04:00:00 20.3 8 Nordeste 15 Nordeste 0 -- -- 82
2019-08-17 03:00:00 21.3 4 Nordeste 14 Nordeste 0 -- -- 77
2019-08-17 02:00:00 21.9 9 Nordeste 16 Nordeste 0 -- -- 76
2019-08-17 01:00:00 23.1 10 Nordeste 20 Nordeste 0 -- -- 71
2019-08-17 00:00:00 24.9 8 Nordeste 18 Nordeste 0 -- -- 62
2019-08-16 23:00:00 27.8 9 Sudeste 26 Sur 0 -- -- 40
2019-08-16 22:00:00 29 14 Sur 34 Sur 0 -- -- 38
2019-08-16 21:00:00 31.4 17 Sudoeste 38 Sudoeste 0 -- -- 36
2019-08-16 20:00:00 33.9 7 Oeste 20 Oeste 0 -- -- 25
2019-08-16 19:00:00 34.8 10 Oeste 33 Noroeste 0 -- -- 24
2019-08-16 18:00:00 35.9 10 Oeste 27 Oeste 0 -- -- 24
2019-08-16 17:00:00 37 7 Noroeste 24 Oeste 0 -- -- 22
2019-08-16 16:00:00 35.9 7 Oeste 25 Oeste 0 -- -- 23
2019-08-16 15:00:00 34.8 8 Sudoeste 20 Sudoeste 0 -- -- 24
2019-08-16 14:00:00 33.5 5 Sur 15 Este 0 -- -- 30
2019-08-16 13:00:00 31 7 Sudoeste 13 Oeste 0 -- -- 32
2019-08-16 12:00:00 28.2 5 Oeste 10 Oeste 0 -- -- 40
2019-08-16 11:00:00 26.2 4 Sudeste 10 Nordeste 0 -- -- 48
2019-08-16 10:00:00 22.9 4 Este 11 Este 0 -- -- 65
2019-08-16 09:00:00 19.8 5 Este 13 Nordeste 0 -- -- 82
2019-08-16 08:00:00 18.3 9 Nordeste 14 Nordeste 0 -- -- 85
2019-08-16 07:00:00 18.6 5 Este 13 Nordeste 0 -- -- 83
2019-08-16 06:00:00 19.4 6 Este 13 Este 0 -- -- 80
2019-08-16 05:00:00 20 5 Este 20 Este 0 -- -- 78
2019-08-16 04:00:00 20.7 10 Este 22 Este 0 -- -- 76
2019-08-16 03:00:00 21.2 8 Este 20 Este 0 -- -- 74
2019-08-16 02:00:00 21.8 9 Este 19 Este 0 -- -- 73
2019-08-16 01:00:00 22.1 7 Este 20 Nordeste 0 -- -- 73
2019-08-16 00:00:00 22.5 9 Este 26 Nordeste 0 -- -- 72
2019-08-15 23:00:00 23.8 14 Nordeste 26 Nordeste 0 -- -- 67
2019-08-15 22:00:00 27.9 6 Este 29 Sudeste 0 -- -- 48
2019-08-15 21:00:00 29.5 18 Sur 40 Sudeste 0 -- -- 37
2019-08-15 20:00:00 33.6 5 Norte 18 Noroeste 0 -- -- 26
2019-08-15 19:00:00 34.5 9 Sudoeste 23 Noroeste 0 -- -- 19
2019-08-15 18:00:00 36.2 6 Noroeste 19 Noroeste 0 -- -- 18
2019-08-15 17:00:00 36.7 11 Noroeste 26 Noroeste 0 -- -- 17
2019-08-15 16:00:00 35.7 10 Oeste 23 Sudoeste 0 -- -- 20
2019-08-15 15:00:00 34.9 9 Sudoeste 22 Sudoeste 0 -- -- 21
2019-08-15 14:00:00 33.3 6 Oeste 16 Oeste 0 -- -- 27
2019-08-15 13:00:00 31.2 3 Sudoeste 11 Sur 0 -- -- 37
2019-08-15 12:00:00 28.9 5 Sudoeste 10 Sudoeste 0 -- -- 43
2019-08-15 11:00:00 26.2 3 Sudoeste 7 Sudoeste 0 -- -- 54
2019-08-15 10:00:00 22.7 3 Nordeste 9 Nordeste 0 -- -- 64
2019-08-15 09:00:00 18.9 0 Calma 5 Sudoeste 0 -- -- 75
2019-08-15 08:00:00 17.9 2 Este 5 Sudeste 0 -- -- 74
2019-08-15 07:00:00 18.4 3 Este 8 Este 0 -- -- 72
2019-08-15 06:00:00 18.3 3 Este 11 Nordeste 0 -- -- 71
2019-08-15 05:00:00 19 5 Nordeste 11 Nordeste 0 -- -- 70
2019-08-15 04:00:00 19.8 3 Este 13 Nordeste 0 -- -- 68
2019-08-15 03:00:00 20.3 6 Nordeste 13 Nordeste 0 -- -- 67
2019-08-15 02:00:00 21.8 4 Este 12 Nordeste 0 -- -- 65
2019-08-15 01:00:00 22.4 6 Nordeste 12 Nordeste 0 -- -- 62
2019-08-15 00:00:00 23.3 6 Nordeste 18 Nordeste 0 -- -- 59
2019-08-14 23:00:00 25 11 Nordeste 18 Este 0 -- -- 52
2019-08-14 22:00:00 27.8 6 Noroeste 10 Noroeste 0 -- -- 24
2019-08-14 21:00:00 30.1 7 Noroeste 14 Norte 0 -- -- 22
2019-08-14 20:00:00 31.8 8 Oeste 19 Oeste 0 -- -- 19
2019-08-14 19:00:00 32.6 6 Oeste 24 Noroeste 0 -- -- 20
2019-08-14 18:00:00 33.8 6 Noroeste 24 Oeste 0 -- -- 20
2019-08-14 17:00:00 34.3 9 Noroeste 26 Oeste 0 -- -- 22
2019-08-14 16:00:00 33.6 9 Noroeste 28 Noroeste 0 -- -- 23
2019-08-14 15:00:00 32.3 10 Noroeste 25 Oeste 0 -- -- 26
2019-08-14 14:00:00 30.4 9 Oeste 21 Sudoeste 0 -- -- 34
2019-08-14 13:00:00 28.1 5 Oeste 17 Noroeste 0 -- -- 45
2019-08-14 12:00:00 26.3 5 Oeste 12 Oeste 0 -- -- 53
2019-08-14 11:00:00 23.7 4 Noroeste 10 Sudoeste 0 -- -- 64
2019-08-14 10:00:00 20.4 5 Oeste 9 Oeste 0 -- -- 76
2019-08-14 09:00:00 17.4 3 Noroeste 6 Noroeste 0 -- -- 86
2019-08-14 08:00:00 16.5 0 Calma -- -- 0 -- -- 86
2019-08-14 07:00:00 16.8 0 Calma -- -- 0 -- -- 87
2019-08-14 06:00:00 17.2 0 Calma 9 Este 0 -- -- 86
2019-08-14 05:00:00 17.7 3 Este 12 Nordeste 0 -- -- 84
2019-08-14 04:00:00 18.1 6 Nordeste 12 Este 0 -- -- 82
2019-08-14 03:00:00 19 5 Este 14 Este 0 -- -- 79
2019-08-14 02:00:00 19.2 6 Este 18 Nordeste 0 -- -- 79
2019-08-14 01:00:00 19.5 8 Nordeste 17 Nordeste 0 -- -- 77
2019-08-14 00:00:00 20.6 10 Nordeste 20 Nordeste 0 -- -- 74
2019-08-13 23:00:00 23 6 Sudeste 19 Sudeste 0 -- -- 62
2019-08-13 22:00:00 23.9 4 Sudeste 24 Sudeste 0 -- -- 58
2019-08-13 21:00:00 24.8 16 Sur 29 Sudeste 0 -- -- 57
2019-08-13 20:00:00 26.2 17 Sudeste 30 Sudeste 0 -- -- 53
2019-08-13 19:00:00 27.1 11 Sur 23 Sur 0 -- -- 50
2019-08-13 18:00:00 28.6 7 Este 20 Sudeste 0 -- -- 44
2019-08-13 17:00:00 28.7 8 Este 22 Sudeste 0 -- -- 44
2019-08-13 16:00:00 27.5 10 Este 32 Sudeste 0 -- -- 47
2019-08-13 15:00:00 28.6 12 Sudeste 24 Sudeste 0 -- -- 45
2019-08-13 14:00:00 27.9 10 Este 26 Sudeste 0 -- -- 47
2019-08-13 13:00:00 26.8 11 Sudeste 26 Sudeste 0 -- -- 51
2019-08-13 12:00:00 25.3 11 Sudeste 24 Sudeste 0 -- -- 54
2019-08-13 11:00:00 23.3 7 Este 23 Sudeste 0 -- -- 59
2019-08-13 10:00:00 21.9 10 Este 22 Sur 0 -- -- 62
2019-08-13 09:00:00 19.9 8 Este 18 Este 0 -- -- 69
2019-08-13 08:00:00 19.4 8 Este 21 Este 0 -- -- 71
2019-08-13 07:00:00 19.5 6 Este 22 Este 0 -- -- 76
2019-08-13 06:00:00 19.5 5 Este 14 Este 0 -- -- 76
2019-08-13 05:00:00 19.8 5 Este 21 Sudeste 0 -- -- 73
2019-08-13 04:00:00 20.1 8 Sudeste 18 Este 0 -- -- 69
2019-08-13 03:00:00 20.1 5 Este 18 Este 0 -- -- 72
2019-08-13 02:00:00 20.4 6 Este 17 Este 0 -- -- 75
2019-08-13 01:00:00 21.1 6 Este 23 Este 0 -- -- 75
2019-08-13 00:00:00 21.3 8 Este 23 Sudeste 0 -- -- 74
2019-08-12 23:00:00 21.7 8 Este 23 Sudeste 0 -- -- 70
2019-08-12 22:00:00 22.4 10 Este 27 Sudeste 0 -- -- 67
2019-08-12 21:00:00 24 10 Este 27 Este 0 -- -- 60
2019-08-12 20:00:00 26.5 10 Este 31 Sudeste 0 -- -- 53
2019-08-12 19:00:00 30 12 Sudeste 24 Sudeste 0 -- -- 38
2019-08-12 18:00:00 31.8 5 Noroeste 23 Noroeste 0 -- -- 14
2019-08-12 17:00:00 32.2 6 Norte 20 Oeste 0 -- -- 17
2019-08-12 16:00:00 31.2 9 Oeste 23 Oeste 0 -- -- 16
2019-08-12 15:00:00 30.8 6 Noroeste 15 Noroeste 0 -- -- 20
2019-08-12 14:00:00 29 8 Oeste 17 Oeste 0 -- -- 22
2019-08-12 13:00:00 27.5 6 Sur 13 Sur 0 -- -- 27
2019-08-12 12:00:00 24.7 4 Oeste 12 Sudoeste 0 -- -- 31
2019-08-12 11:00:00 21.7 7 Oeste 15 Oeste 0 -- -- 33
2019-08-12 10:00:00 19.8 7 Oeste 15 Oeste 0 -- -- 34
2019-08-12 09:00:00 17.9 7 Sudoeste 12 Sudoeste 0 -- -- 37
2019-08-12 08:00:00 17 5 Sudoeste 16 Oeste 0 -- -- 37
2019-08-12 07:00:00 17.3 11 Oeste 18 Oeste 0 -- -- 36
2019-08-12 06:00:00 18 7 Oeste 17 Oeste 0 -- -- 36
2019-08-12 05:00:00 18.7 6 Sudoeste 13 Oeste 0 -- -- 35
2019-08-12 04:00:00 19.5 9 Oeste 14 Oeste 0 -- -- 33
2019-08-12 03:00:00 20.7 6 Sudoeste 16 Oeste 0 -- -- 29
2019-08-12 02:00:00 22.1 7 Sudoeste 13 Sudoeste 0 -- -- 26
2019-08-12 01:00:00 23.3 5 Sudoeste 14 Oeste 0 -- -- 27
2019-08-12 00:00:00 24.9 7 Oeste 13 Oeste 0 -- -- 24
2019-08-11 23:00:00 26.2 6 Oeste 10 Oeste 0 -- -- 23
2019-08-11 22:00:00 27.4 6 Oeste 12 Noroeste 0 -- -- 21
2019-08-11 21:00:00 28.8 8 Noroeste 26 Noroeste 0 -- -- 20
2019-08-11 20:00:00 31 13 Noroeste 29 Oeste 0 -- -- 19
2019-08-11 19:00:00 32.5 13 Noroeste 32 Noroeste 0 -- -- 19
2019-08-11 18:00:00 33.2 13 Oeste 33 Noroeste 0 -- -- 20
2019-08-11 17:00:00 33.3 18 Noroeste 38 Noroeste 0 -- -- 21
2019-08-11 16:00:00 31.7 17 Noroeste 33 Oeste 0 -- -- 21
2019-08-11 15:00:00 32.2 14 Noroeste 35 Noroeste 0 -- -- 20
2019-08-11 14:00:00 31.9 14 Oeste 36 Noroeste 0 -- -- 20
2019-08-11 13:00:00 30.3 18 Noroeste 32 Oeste 0 -- -- 25
2019-08-11 12:00:00 28.2 14 Oeste 23 Sudoeste 0 -- -- 28
2019-08-11 11:00:00 25.9 9 Oeste 19 Oeste 0 -- -- 33
2019-08-11 10:00:00 23.2 6 Oeste 17 Oeste 0 -- -- 46
2019-08-11 09:00:00 20.5 5 Sudoeste 12 Sur 0 -- -- 86
2019-08-11 08:00:00 20.3 2 Oeste 7 Norte 0 -- -- 87
2019-08-11 07:00:00 20.8 2 Nordeste 11 Este 0 -- -- 86
2019-08-11 06:00:00 21.2 5 Este 15 Nordeste 0 -- -- 86
2019-08-11 05:00:00 21.5 8 Nordeste 14 Nordeste 0 -- -- 85
2019-08-11 04:00:00 22 8 Nordeste 17 Nordeste 0 -- -- 82
2019-08-11 03:00:00 22.8 8 Nordeste 13 Nordeste 0 -- -- 77
2019-08-11 02:00:00 23.5 7 Nordeste 14 Nordeste 0 -- -- 75
2019-08-11 01:00:00 24.7 5 Nordeste 13 Nordeste 0 -- -- 69
2019-08-11 00:00:00 26.3 6 Nordeste 13 Nordeste 0 -- -- 62
2019-08-10 23:00:00 28.3 6 Este 18 Sudeste 0 -- -- 55
2019-08-10 22:00:00 29.4 12 Sudeste 30 Sur 0 -- -- 53
2019-08-10 21:00:00 31.5 16 Sudeste 33 Sur 0 -- -- 47
2019-08-10 20:00:00 34.2 6 Noroeste 16 Oeste 0 -- -- 28
2019-08-10 19:00:00 34.7 6 Oeste 19 Oeste 0 -- -- 28
2019-08-10 18:00:00 35.2 9 Oeste 21 Oeste 0 -- -- 29
2019-08-10 17:00:00 35.3 13 Oeste 27 Oeste 0 -- -- 28
2019-08-10 16:00:00 34.4 8 Oeste 22 Oeste 0 -- -- 29
2019-08-10 15:00:00 33.5 8 Noroeste 18 Oeste 0 -- -- 31
2019-08-10 14:00:00 32.1 7 Sudoeste 21 Noroeste 0 -- -- 40
2019-08-10 13:00:00 30.3 8 Sudoeste 21 Oeste 0 -- -- 44
2019-08-10 12:00:00 28.3 9 Oeste 17 Oeste 0 -- -- 49
2019-08-10 11:00:00 26.7 8 Oeste 16 Oeste 0 -- -- 53
2019-08-10 10:00:00 24.1 5 Oeste 11 Oeste 0 -- -- 62
2019-08-10 09:00:00 21.5 6 Sudoeste 14 Sudoeste 0 -- -- 70
2019-08-10 08:00:00 20.6 8 Oeste 15 Oeste 0 -- -- 73
2019-08-10 07:00:00 20.9 6 Sudoeste 12 Sudoeste 0 -- -- 70
2019-08-10 06:00:00 21.5 7 Oeste 15 Oeste 0 -- -- 66
2019-08-10 05:00:00 22.5 8 Sudoeste 16 Oeste 0 -- -- 59
2019-08-10 04:00:00 23.6 9 Oeste 14 Oeste 0 -- -- 51
2019-08-10 03:00:00 24.6 4 Oeste 12 Oeste 0 -- -- 47
2019-08-10 02:00:00 25.4 7 Oeste 13 Sudoeste 0 -- -- 45
2019-08-10 01:00:00 26.5 4 Sudoeste 9 Sudoeste 0 -- -- 41
2019-08-10 00:00:00 27.7 5 Oeste 9 Oeste 0 -- -- 39
2019-08-09 23:00:00 29.3 6 Oeste 11 Oeste 0 -- -- 35
2019-08-09 22:00:00 30.2 6 Noroeste 17 Noroeste 0 -- -- 33
2019-08-09 21:00:00 32.3 10 Noroeste 27 Noroeste 0 -- -- 30
2019-08-09 20:00:00 33.8 15 Noroeste 30 Noroeste 0 -- -- 28
2019-08-09 19:00:00 34.7 17 Noroeste 31 Oeste 0 -- -- 28
2019-08-09 18:00:00 35.5 15 Oeste 36 Oeste 0 -- -- 27
2019-08-09 17:00:00 36.1 17 Oeste 33 Noroeste 0 -- -- 25
2019-08-09 16:00:00 35.3 17 Noroeste 32 Noroeste 0 -- -- 28
2019-08-09 15:00:00 34.6 19 Oeste 36 Noroeste 0 -- -- 28
2019-08-09 14:00:00 33.4 17 Oeste 34 Oeste 0 -- -- 30
2019-08-09 13:00:00 32.1 17 Oeste 36 Noroeste 0 -- -- 31
2019-08-09 12:00:00 30.2 13 Oeste 25 Oeste 0 -- -- 37
2019-08-09 11:00:00 27.4 13 Oeste 26 Oeste 0 -- -- 39
2019-08-09 10:00:00 24.4 11 Oeste 19 Oeste 0 -- -- 40
2019-08-09 09:00:00 21.7 10 Oeste 15 Oeste 0 -- -- 41
2019-08-09 08:00:00 20 3 Sudoeste 5 Oeste 0 -- -- 42
2019-08-09 07:00:00 20.1 3 Sudoeste 9 Oeste 0 -- -- 41
2019-08-09 06:00:00 20.9 3 Sudoeste 8 Oeste 0 -- -- 43
2019-08-09 05:00:00 22.1 2 Sudoeste 13 Oeste 0 -- -- 41
2019-08-09 04:00:00 22.8 8 Noroeste 11 Noroeste 0 -- -- 39
2019-08-09 03:00:00 25.1 5 Oeste 16 Noroeste 0 -- -- 34
2019-08-09 02:00:00 26.6 10 Oeste 22 Sudoeste 0 -- -- 32
2019-08-09 01:00:00 27.3 11 Sudoeste 23 Sudoeste 0 -- -- 34
2019-08-09 00:00:00 28.2 3 Oeste 14 Oeste 0 -- -- 34
2019-08-08 23:00:00 29.7 6 Oeste 17 Oeste 0 -- -- 32
2019-08-08 22:00:00 30.5 6 Norte 12 Noroeste 0 -- -- 29
2019-08-08 21:00:00 32.8 3 Norte 10 Oeste 0 -- -- 27
2019-08-08 20:00:00 34.1 6 Oeste 14 Sudoeste 0 -- -- 24
2019-08-08 19:00:00 34.8 8 Oeste 20 Noroeste 0 -- -- 24
2019-08-08 18:00:00 35.1 8 Sudoeste 23 Oeste 0 -- -- 25
2019-08-08 17:00:00 35.4 14 Oeste 28 Oeste 0 -- -- 25
2019-08-08 16:00:00 34.7 11 Oeste 28 Oeste 0 -- -- 27
2019-08-08 15:00:00 33.5 12 Oeste 29 Oeste 0 -- -- 29
2019-08-08 14:00:00 32 16 Oeste 29 Oeste 0 -- -- 28
2019-08-08 13:00:00 30.8 10 Oeste 19 Noroeste 0 -- -- 32
2019-08-08 12:00:00 28.4 9 Oeste 18 Oeste 0 -- -- 37
2019-08-08 11:00:00 26.6 7 Noroeste 17 Oeste 0 -- -- 41
2019-08-08 10:00:00 23.3 4 Oeste 13 Oeste 0 -- -- 48
2019-08-08 09:00:00 20.3 6 Oeste 11 Oeste 0 -- -- 54
2019-08-08 08:00:00 20 7 Oeste 10 Oeste 0 -- -- 54
2019-08-08 07:00:00 20.3 7 Oeste 10 Sudoeste 0 -- -- 52
2019-08-08 06:00:00 21 6 Oeste 12 Oeste 0 -- -- 49
2019-08-08 05:00:00 21.7 8 Oeste 12 Oeste 0 -- -- 47
2019-08-08 04:00:00 22.7 6 Oeste 10 Oeste 0 -- -- 45
2019-08-08 03:00:00 24.2 5 Oeste 11 Oeste 0 -- -- 41
2019-08-08 02:00:00 25.3 6 Oeste 13 Oeste 0 -- -- 39
2019-08-08 01:00:00 26.3 6 Oeste 10 Oeste 0 -- -- 36
2019-08-08 00:00:00 27.2 3 Sudoeste 9 Oeste 0 -- -- 34
2019-08-07 23:00:00 27.7 4 Oeste 15 Noroeste 0 -- -- 32
2019-08-07 22:00:00 28.8 9 Noroeste 18 Noroeste 0 -- -- 29
2019-08-07 21:00:00 30.2 5 Oeste 19 Oeste 0 -- -- 26
2019-08-07 20:00:00 31.3 10 Oeste 21 Noroeste 0 -- -- 24
2019-08-07 19:00:00 32.2 9 Oeste 28 Noroeste 0 -- -- 21
2019-08-07 18:00:00 32.4 17 Noroeste 30 Noroeste 0 -- -- 20
2019-08-07 17:00:00 33.3 17 Oeste 33 Noroeste 0 -- -- 18
2019-08-07 16:00:00 34.6 18 Noroeste 34 Oeste 0 -- -- 20
2019-08-07 15:00:00 34.5 15 Oeste 36 Noroeste 0 -- -- 22
2019-08-07 14:00:00 32.8 16 Oeste 31 Oeste 0 -- -- 24
2019-08-07 13:00:00 30.9 14 Oeste 30 Oeste 0 -- -- 30
2019-08-07 12:00:00 28.7 10 Oeste 19 Oeste 0 -- -- 32
2019-08-07 11:00:00 25.6 6 Oeste 16 Sudoeste 0 -- -- 30
2019-08-07 10:00:00 23.5 6 Oeste 11 Oeste 0 -- -- 27
2019-08-07 09:00:00 21.4 5 Oeste 10 Oeste 0 -- -- 30
2019-08-07 08:00:00 20.3 5 Oeste 8 Oeste 0 -- -- 29
2019-08-07 07:00:00 20.6 3 Sudoeste 10 Oeste 0 -- -- 27
2019-08-07 06:00:00 21.3 6 Oeste 10 Oeste 0 -- -- 26
2019-08-07 05:00:00 22.6 8 Oeste 13 Oeste 0 -- -- 25
2019-08-07 04:00:00 24.2 9 Oeste 16 Oeste 0 -- -- 30
2019-08-07 03:00:00 25.1 9 Oeste 17 Oeste 0 -- -- 29
2019-08-07 02:00:00 26.3 8 Oeste 15 Oeste 0 -- -- 21
2019-08-07 01:00:00 27.3 5 Sudoeste 18 Oeste 0 -- -- 16
2019-08-07 00:00:00 27.4 9 Noroeste 13 Noroeste 0 -- -- 14
2019-08-06 23:00:00 29.4 4 Sur 19 Oeste 0 -- -- 13
2019-08-06 22:00:00 31.4 4 Sudoeste 14 Oeste 0 -- -- 13
2019-08-06 21:00:00 34.2 10 Oeste 31 Noroeste 0 -- -- 11
2019-08-06 20:00:00 36.1 15 Oeste 28 Oeste 0 -- -- 11
2019-08-06 19:00:00 36.8 14 Oeste 24 Oeste 0 -- -- 12
2019-08-06 18:00:00 37.1 8 Sur 22 Sudeste 0 -- -- 15
2019-08-06 17:00:00 37.6 7 Oeste 28 Oeste 0 -- -- 15
2019-08-06 16:00:00 37 12 Sudoeste 29 Oeste 0 -- -- 16
2019-08-06 15:00:00 35.8 10 Oeste 24 Sudoeste 0 -- -- 18
2019-08-06 14:00:00 34.4 9 Oeste 24 Oeste 0 -- -- 20
2019-08-06 13:00:00 32.7 7 Sudoeste 15 Oeste 0 -- -- 25
2019-08-06 12:00:00 30.2 9 Oeste 16 Noroeste 0 -- -- 32
2019-08-06 11:00:00 27.3 8 Oeste 16 Noroeste 0 -- -- 38
2019-08-06 10:00:00 23.4 4 Sudoeste 9 Noroeste 0 -- -- 65
2019-08-06 09:00:00 20.1 3 Oeste 7 Noroeste 0 -- -- 86
2019-08-06 08:00:00 20.1 4 Sudoeste 7 Oeste 0 -- -- 90
2019-08-06 07:00:00 20.5 0 Calma 4 Este 0 -- -- 88
2019-08-06 06:00:00 20.5 0 Calma 12 Norte 0 -- -- 87
2019-08-06 05:00:00 20.9 7 Nordeste 15 Nordeste 0 -- -- 87
2019-08-06 04:00:00 21.7 6 Nordeste 15 Este -- -- -- 84
2019-08-06 03:00:00 22.4 6 Nordeste 18 Nordeste 0 -- -- 81
2019-08-06 02:00:00 23.3 7 Nordeste 15 Nordeste 0 -- -- 77
2019-08-06 01:00:00 24.5 6 Nordeste 15 Este 0 -- -- 71
2019-08-06 00:00:00 25.7 8 Nordeste 19 Nordeste 0 -- -- 66
2019-08-05 23:00:00 29 5 Nordeste 15 Nordeste 0 -- -- 56
2019-08-05 22:00:00 30.3 9 Sur 22 Sudeste 0 -- -- 50
2019-08-05 21:00:00 31.8 15 Sur 34 Sudeste 0 -- -- 48
2019-08-05 20:00:00 33.8 19 Sudeste 31 Sudeste 0 -- -- 41
2019-08-05 19:00:00 36 4 Nordeste 18 Noroeste 0 -- -- 31
2019-08-05 18:00:00 37.6 8 Oeste 18 Noroeste 0 -- -- 20
2019-08-05 17:00:00 37.9 5 Nordeste 16 Noroeste 0 -- -- 21
2019-08-05 16:00:00 37.1 8 Noroeste 28 Oeste 0 -- -- 23
2019-08-05 15:00:00 35.8 8 Oeste 19 Oeste 0 -- -- 22
2019-08-05 14:00:00 34.5 4 Sur 10 Sudoeste 0 -- -- 28
2019-08-05 13:00:00 32.3 3 Sur 10 Noroeste 0 -- -- 37
2019-08-05 12:00:00 29.5 4 Noroeste 13 Norte 0 -- -- 43
2019-08-05 11:00:00 26.8 3 Norte 8 Norte 0 -- -- 54
2019-08-05 10:00:00 22.7 3 Sudoeste 6 Sudoeste 0 -- -- 70
2019-08-05 09:00:00 20 2 Sudoeste 6 Oeste 0 -- -- 80
2019-08-05 08:00:00 19 2 Este 9 Nordeste 0 -- -- 82
2019-08-05 07:00:00 19 3 Este 10 Nordeste 0 -- -- 81
2019-08-05 06:00:00 19.7 3 Este 16 Este 0 -- -- 80
2019-08-05 05:00:00 20.1 10 Nordeste 18 Nordeste 0 -- -- 79
2019-08-05 04:00:00 20.8 11 Nordeste 17 Este 0 -- -- 76
2019-08-05 03:00:00 21.6 8 Nordeste 19 Nordeste 0 -- -- 73
2019-08-05 02:00:00 22.6 7 Este 21 Nordeste 0 -- -- 69
2019-08-05 01:00:00 23.9 8 Este 21 Este 0 -- -- 65
2019-08-05 00:00:00 25.5 8 Nordeste 21 Nordeste 0 -- -- 61
2019-08-04 23:00:00 29 6 Norte 13 Sudeste 0 -- -- 50
2019-08-04 22:00:00 30.5 8 Sudeste 31 Sudeste 0 -- -- 47
2019-08-04 21:00:00 33.1 8 Este 15 Este 0 -- -- 38
2019-08-04 20:00:00 35.3 8 Noroeste 19 Noroeste 0 -- -- 19
2019-08-04 19:00:00 35.9 8 Oeste 22 Sudoeste 0 -- -- 19
2019-08-04 18:00:00 37.2 9 Oeste 21 Sudoeste 0 -- -- 18
2019-08-04 17:00:00 37.3 6 Sudoeste 20 Noroeste 0 -- -- 19
2019-08-04 16:00:00 36.8 9 Oeste 23 Oeste 0 -- -- 19
2019-08-04 15:00:00 35.6 8 Oeste 19 Oeste 0 -- -- 20
2019-08-04 14:00:00 34.3 6 Oeste 18 Oeste 0 -- -- 25
2019-08-04 13:00:00 32.4 7 Oeste 21 Oeste 0 -- -- 28
2019-08-04 12:00:00 30 9 Sudoeste 19 Oeste 0 -- -- 33
2019-08-04 11:00:00 27.2 7 Sudoeste 14 Sudoeste 0 -- -- 45
2019-08-04 10:00:00 23.4 5 Sudoeste 9 Sudoeste 0 -- -- 59
2019-08-04 09:00:00 20.1 0 Calma 4 Sur 0 -- -- 72
2019-08-04 08:00:00 18.9 0 Calma 5 Sudoeste 0 -- -- 75
2019-08-04 07:00:00 19 0 Calma 3 Sudeste 0 -- -- 73
2019-08-04 06:00:00 19.5 3 Este 6 Este 0 -- -- 71
2019-08-04 05:00:00 20.2 4 Nordeste 9 Nordeste 0 -- -- 69
2019-08-04 04:00:00 20.7 5 Nordeste 13 Nordeste 0 -- -- 68
2019-08-04 03:00:00 21.6 6 Nordeste 16 Nordeste 0 -- -- 65
2019-08-04 02:00:00 22.4 9 Nordeste 16 Nordeste 0 -- -- 63
2019-08-04 01:00:00 23.6 9 Nordeste 19 Nordeste 0 -- -- 62
2019-08-04 00:00:00 25.2 9 Nordeste 20 Nordeste 0 -- -- 60
2019-08-03 23:00:00 28.5 11 Sudeste 18 Sudoeste 0 -- -- 47
2019-08-03 22:00:00 30 7 Sur 27 Sur 0 -- -- 44
2019-08-03 21:00:00 31.1 9 Sudeste 26 Sudeste 0 -- -- 44
2019-08-03 20:00:00 32.1 15 Este 29 Sudeste 0 -- -- 44
2019-08-03 19:00:00 33.8 11 Este 28 Sudeste 0 -- -- 40
2019-08-03 18:00:00 35.8 12 Este 30 Nordeste 0 -- -- 36
2019-08-03 17:00:00 36.9 9 Sur 23 Sudeste 0 -- -- 27
2019-08-03 16:00:00 36.2 7 Sur 19 Sudoeste 0 -- -- 28
2019-08-03 15:00:00 35.4 8 Sur 18 Este 0 -- -- 29
2019-08-03 14:00:00 34 5 Este 15 Sur 0 -- -- 34
2019-08-03 13:00:00 31.9 5 Noroeste 12 Sudoeste 0 -- -- 40
2019-08-03 12:00:00 29.5 6 Norte 14 Nordeste 0 -- -- 45
2019-08-03 11:00:00 27 3 Norte 10 Norte 0 -- -- 51
2019-08-03 10:00:00 23.4 4 Nordeste 11 Nordeste 0 -- -- 58
2019-08-03 09:00:00 20.5 4 Nordeste 11 Nordeste 0 -- -- 64
2019-08-03 08:00:00 18.6 6 Nordeste 10 Nordeste 0 -- -- 68
2019-08-03 07:00:00 18.8 4 Este 17 Nordeste 0 -- -- 64
2019-08-03 06:00:00 19 11 Nordeste 16 Nordeste 0 -- -- 62
2019-08-03 05:00:00 20.1 6 Nordeste 15 Sudeste 0 -- -- 59
2019-08-03 04:00:00 20.7 9 Este 20 Sudeste 0 -- -- 58
2019-08-03 03:00:00 20.9 5 Nordeste 16 Nordeste 0 -- -- 59
2019-08-03 02:00:00 21.5 6 Este 20 Nordeste 0 -- -- 60
2019-08-03 01:00:00 22 9 Nordeste 23 Este 0 -- -- 62
2019-08-03 00:00:00 22.8 9 Nordeste 24 Nordeste 0 -- -- 60
2019-08-02 23:00:00 24.1 11 Nordeste 25 Este 0 -- -- 57
2019-08-02 22:00:00 26.3 11 Nordeste 23 Nordeste 0 -- -- 51
2019-08-02 21:00:00 30.3 10 Sudeste 27 Este 0 -- -- 37
2019-08-02 20:00:00 32.4 10 Este 30 Sudeste 0 -- -- 33
2019-08-02 19:00:00 33.9 13 Sudeste 30 Noroeste 0 -- -- 32
2019-08-02 18:00:00 36.3 4 Este 22 Oeste 0 -- -- 21
2019-08-02 17:00:00 36.5 7 Oeste 36 Noroeste 0 -- -- 22
2019-08-02 16:00:00 36.2 6 Sur 21 Oeste 0 -- -- 21
2019-08-02 15:00:00 35.1 7 Noroeste 18 Este 0 -- -- 26
2019-08-02 14:00:00 33.4 6 Nordeste 15 Nordeste 0 -- -- 30
2019-08-02 13:00:00 31.2 6 Nordeste 14 Nordeste 0 -- -- 38
2019-08-02 12:00:00 28.4 5 Sur 13 Sur 0 -- -- 47
2019-08-02 11:00:00 25.7 4 Norte 12 Norte 0 -- -- 58
2019-08-02 10:00:00 22.5 3 Nordeste 9 Este 0 -- -- 65
2019-08-02 09:00:00 19.8 4 Este 12 Nordeste 0 -- -- 73
2019-08-02 08:00:00 18 2 Este 12 Nordeste 0 -- -- 81
2019-08-02 07:00:00 18 7 Nordeste 10 Nordeste 0 -- -- 80
2019-08-02 06:00:00 18.7 0 Calma 11 Nordeste 0 -- -- 79
2019-08-02 05:00:00 19 8 Nordeste 17 Este 0 -- -- 79
2019-08-02 04:00:00 19.6 12 Nordeste 17 Este 0 -- -- 78
2019-08-02 03:00:00 20.4 9 Nordeste 17 Nordeste 0 -- -- 76
2019-08-02 02:00:00 21.1 7 Nordeste 17 Nordeste 0 -- -- 74
2019-08-02 01:00:00 22.1 9 Nordeste 19 Nordeste 0 -- -- 72
2019-08-02 00:00:00 23.4 11 Nordeste 21 Nordeste 0 -- -- 68
2019-08-01 23:00:00 25.3 10 Nordeste 22 Nordeste 0 -- -- 62
2019-08-01 22:00:00 28.3 7 Nordeste 20 Este 0 -- -- 53
2019-08-01 21:00:00 30.1 12 Sudeste 25 Sudeste 0 -- -- 49
2019-08-01 20:00:00 33.2 4 Nordeste 17 Oeste 0 -- -- 33
2019-08-01 19:00:00 34.2 8 Noroeste 20 Noroeste 0 -- -- 29
2019-08-01 18:00:00 35.2 6 Noroeste 20 Noroeste 0 -- -- 27
2019-08-01 17:00:00 35 10 Noroeste 20 Norte 0 -- -- 27
2019-08-01 16:00:00 34.3 8 Oeste 16 Noroeste 0 -- -- 28
2019-08-01 15:00:00 32.7 6 Noroeste 17 Noroeste 0 -- -- 32
2019-08-01 14:00:00 31.6 8 Noroeste 15 Oeste 0 -- -- 35
2019-08-01 13:00:00 29.6 5 Sudeste 13 Noroeste 0 -- -- 42
2019-08-01 12:00:00 27.1 4 Nordeste 15 Norte 0 -- -- 48
2019-08-01 11:00:00 24.4 6 Nordeste 14 Nordeste 0 -- -- 60
2019-08-01 10:00:00 21.7 4 Este 15 Este 0 -- -- 72
2019-08-01 09:00:00 19 4 Este 14 Nordeste 0 -- -- 84
2019-08-01 08:00:00 17.2 6 Nordeste 13 Nordeste 0 -- -- 86
2019-08-01 07:00:00 16.9 8 Nordeste 14 Nordeste 0 -- -- 85
2019-08-01 06:00:00 17.3 8 Nordeste 13 Nordeste 0 -- -- 84
2019-08-01 05:00:00 18.1 4 Este 19 Este 0 -- -- 82
2019-08-01 04:00:00 18.4 7 Este 18 Este 0 -- -- 82
2019-08-01 03:00:00 18.8 9 Este 27 Sudeste 0 -- -- 81
2019-08-01 02:00:00 19.3 9 Este 22 Sudeste 0 -- -- 76
2019-08-01 01:00:00 20 7 Nordeste 22 Este 0 -- -- 74
2019-08-01 00:00:00 20.6 11 Este 23 Sudeste 0 -- -- 72
2019-07-31 23:00:00 21.2 8 Este 24 Sudeste 0 -- -- 69
2019-07-31 22:00:00 22.1 11 Este 24 Sudeste 0 -- -- 66
2019-07-31 21:00:00 23.1 11 Este 29 Sudeste 0 -- -- 63
2019-07-31 20:00:00 24.6 12 Este 29 Sudeste 0 -- -- 60
2019-07-31 19:00:00 26.2 13 Este 28 Sudeste 0 -- -- 56
2019-07-31 18:00:00 27.1 13 Este 40 Este 0 -- -- 54
2019-07-31 17:00:00 27.6 15 Este 31 Sudeste 0 -- -- 55
2019-07-31 16:00:00 28.5 12 Este 34 Sudeste 0 -- -- 52
2019-07-31 15:00:00 29.1 13 Sudeste 31 Sudeste 0 -- -- 49
2019-07-31 14:00:00 28 17 Sudeste 40 Sudeste 0 -- -- 48
2019-07-31 13:00:00 26.4 13 Este 34 Este 0 -- -- 51
2019-07-31 12:00:00 25.5 13 Sudeste 29 Este 0 -- -- 56
2019-07-31 11:00:00 24.5 12 Este 31 Sudeste 0 -- -- 58
2019-07-31 10:00:00 22.8 12 Sudeste 31 Este 0 -- -- 67
2019-07-31 09:00:00 20.9 15 Sudeste 27 Sudeste 0 -- -- 77
2019-07-31 08:00:00 19.3 8 Este 20 Nordeste 0 -- -- 85
2019-07-31 07:00:00 18.9 8 Nordeste 17 Nordeste 0 -- -- 83
2019-07-31 06:00:00 19 2 Este 9 Nordeste 0 -- -- 80
2019-07-31 05:00:00 19.2 6 Nordeste 15 Este 0 -- -- 80
2019-07-31 04:00:00 19.8 4 Este 21 Este 0 -- -- 78
2019-07-31 03:00:00 20 7 Este 23 Sudeste 0 -- -- 78
2019-07-31 02:00:00 20.3 10 Este 23 Este 0 -- -- 75
2019-07-31 01:00:00 20.9 9 Nordeste 22 Nordeste 0 -- -- 77
2019-07-31 00:00:00 21.5 9 Nordeste 26 Nordeste 0 -- -- 76
2019-07-30 23:00:00 22.1 11 Este 25 Nordeste 0 -- -- 72
2019-07-30 22:00:00 23.6 11 Este 28 Este 0 -- -- 67
2019-07-30 21:00:00 26.8 8 Este 28 Este 0 -- -- 53
2019-07-30 20:00:00 28.6 14 Este 33 Sudeste 0 -- -- 45
2019-07-30 19:00:00 30.8 16 Sudeste 33 Sudeste 0 -- -- 43
2019-07-30 18:00:00 32.5 13 Sudeste 33 Sudeste 0 -- -- 39
2019-07-30 17:00:00 33.6 11 Sudeste 34 Nordeste 0 -- -- 38
2019-07-30 16:00:00 35.2 8 Este 19 Nordeste 0 -- -- 22
2019-07-30 15:00:00 34.3 5 Norte 15 Norte 0 -- -- 22
2019-07-30 14:00:00 33 9 Norte 16 Noroeste 0 -- -- 22
2019-07-30 13:00:00 31.4 6 Nordeste 10 Nordeste 0 -- -- 25
2019-07-30 12:00:00 29 3 Sudoeste 9 Sudeste 0 -- -- 27
2019-07-30 11:00:00 25.7 3 Sur 11 Oeste 0 -- -- 29
2019-07-30 10:00:00 22.1 7 Oeste 14 Sudoeste 0 -- -- 35
2019-07-30 09:00:00 19.7 6 Sudoeste 17 Oeste 0 -- -- 39
2019-07-30 08:00:00 18.6 8 Oeste 13 Oeste 0 -- -- 40
2019-07-30 07:00:00 18.8 6 Oeste 13 Oeste 0 -- -- 39
2019-07-30 06:00:00 19.8 8 Oeste 17 Oeste 0 -- -- 37
2019-07-30 05:00:00 20.8 8 Oeste 13 Oeste 0 -- -- 35
2019-07-30 04:00:00 21.8 4 Sudoeste 9 Sudoeste 0 -- -- 32
2019-07-30 03:00:00 23 4 Sudoeste 11 Oeste 0 -- -- 34
2019-07-30 02:00:00 24 6 Oeste 13 Oeste 0 -- -- 34
2019-07-30 01:00:00 24.9 8 Oeste 14 Oeste 0 -- -- 36
2019-07-30 00:00:00 26.4 9 Oeste 17 Oeste 0 -- -- 27
2019-07-29 23:00:00 28.2 6 Oeste 9 Oeste 0 -- -- 29
2019-07-29 22:00:00 29.7 5 Noroeste 15 Noroeste 0 -- -- 28
2019-07-29 21:00:00 31.3 9 Noroeste 25 Noroeste 0 -- -- 27
2019-07-29 20:00:00 32.5 8 Norte 31 Noroeste 0 -- -- 26
2019-07-29 19:00:00 33.3 12 Oeste 27 Noroeste 0 -- -- 25
2019-07-29 18:00:00 34.3 10 Noroeste 24 Oeste 0 -- -- 25
2019-07-29 17:00:00 34 9 Sur 23 Sudoeste 0 -- -- 26
2019-07-29 16:00:00 33.5 12 Oeste 25 Oeste 0 -- -- 25
2019-07-29 15:00:00 32.9 13 Oeste 26 Oeste 0 -- -- 28
2019-07-29 14:00:00 31.5 8 Oeste 24 Noroeste 0 -- -- 30
2019-07-29 13:00:00 30.1 9 Noroeste 17 Norte 0 -- -- 33
2019-07-29 12:00:00 27.9 10 Oeste 18 Oeste 0 -- -- 38
2019-07-29 11:00:00 25.5 6 Oeste 14 Sudoeste 0 -- -- 46
2019-07-29 10:00:00 22.5 4 Sudoeste 7 Sur 0 -- -- 60
2019-07-29 09:00:00 19.5 3 Este 5 Sudeste 0 -- -- 76
2019-07-29 08:00:00 17.5 0 Calma 4 Este 0 -- -- 82
2019-07-29 07:00:00 17.4 0 Calma 13 Este 0 -- -- 81
2019-07-29 06:00:00 17.8 9 Nordeste 15 Nordeste 0 -- -- 80
2019-07-29 05:00:00 18.2 5 Nordeste 17 Nordeste 0 -- -- 77
2019-07-29 04:00:00 19.2 8 Nordeste 14 Este 0 -- -- 71
2019-07-29 03:00:00 21.1 5 Nordeste 10 Nordeste 0 -- -- 62
2019-07-29 02:00:00 22.6 3 Sudeste 13 Sudoeste 0 -- -- 53
2019-07-29 01:00:00 23.1 8 Sudoeste 19 Sur 0 -- -- 53
2019-07-29 00:00:00 23.8 10 Sur 28 Sur 0 -- -- 52
2019-07-28 23:00:00 24.9 10 Sur 23 Sur 0 -- -- 49
2019-07-28 22:00:00 26.7 4 Noroeste 10 Oeste 0 -- -- 31
2019-07-28 21:00:00 28.3 4 Oeste 17 Oeste 0 -- -- 29
2019-07-28 20:00:00 29.1 6 Oeste 19 Oeste 0 -- -- 28
2019-07-28 19:00:00 29.6 12 Oeste 27 Oeste 0 -- -- 27
2019-07-28 18:00:00 30.5 10 Oeste 22 Oeste 0 -- -- 27
2019-07-28 17:00:00 31 10 Oeste 49 Oeste 0 -- -- 25
2019-07-28 16:00:00 30.7 9 Noroeste 24 Sur 0 -- -- 24
2019-07-28 15:00:00 29.7 8 Oeste 27 Noroeste 0 -- -- 28
2019-07-28 14:00:00 27.7 11 Oeste 30 Oeste 0 -- -- 31
2019-07-28 13:00:00 25.8 12 Oeste 28 Noroeste 0 -- -- 35
2019-07-28 12:00:00 24.1 6 Sudoeste 16 Sur 0 -- -- 41
2019-07-28 11:00:00 21.8 7 Oeste 17 Noroeste 0 -- -- 47
2019-07-28 10:00:00 19.4 5 Norte 13 Noroeste 0 -- -- 54
2019-07-28 09:00:00 16.8 3 Sudoeste 9 Oeste 0 -- -- 68
2019-07-28 08:00:00 15.2 5 Oeste 9 Oeste 0 -- -- 73
2019-07-28 07:00:00 15.8 2 Sudoeste 9 Norte 0 -- -- 71
2019-07-28 06:00:00 16.6 4 Norte 7 Norte 0 -- -- 67
2019-07-28 05:00:00 17.6 4 Sur 7 Sur 0 -- -- 65
2019-07-28 04:00:00 18.8 4 Sudoeste 7 Sur 0 -- -- 61
2019-07-28 03:00:00 19.8 3 Oeste 15 Sudoeste 0 -- -- 58
2019-07-28 02:00:00 20.7 6 Sudoeste 22 Oeste 0 -- -- 56
2019-07-28 01:00:00 21.9 11 Oeste 30 Oeste 0 -- -- 52
2019-07-28 00:00:00 22.6 15 Oeste 33 Oeste 0 -- -- 52
2019-07-27 23:00:00 23.2 17 Oeste 39 Oeste 0 -- -- 52
2019-07-26 12:00:00 -- -- -- -- -- -- -- -- --
2019-07-26 11:00:00 -- -- -- -- -- -- -- -- --
2019-07-26 10:00:00 -- -- -- -- -- -- -- -- --
2019-07-26 09:00:00 -- -- -- -- -- -- -- -- --
2019-07-26 08:00:00 20 0 Calma 4 Este 0 -- -- 67
2019-07-26 07:00:00 20.1 0 Calma 6 Este 0 -- -- 65
2019-07-26 06:00:00 20.6 3 Este 8 Nordeste 0 -- -- 65
2019-07-26 05:00:00 20.8 6 Nordeste 12 Nordeste 0 -- -- 65
2019-07-26 04:00:00 21.6 6 Nordeste 11 Nordeste 0 -- -- 59
2019-07-26 03:00:00 22.6 5 Nordeste 10 Nordeste 0 -- -- 53
2019-07-26 02:00:00 23.4 6 Nordeste 15 Sudeste 0 -- -- 51
2019-07-26 01:00:00 25.7 6 Sudeste 13 Sudeste 0 -- -- 36
2019-07-26 00:00:00 27.1 6 Sur 11 Sudeste 0 -- -- 31
2019-07-25 23:00:00 28.3 3 Sur 17 Sur 0 -- -- 30
2019-07-25 22:00:00 30.1 12 Sur 25 Sudeste 0 -- -- 28
2019-07-25 21:00:00 31.9 14 Sur 31 Sudeste 0 -- -- 25
2019-07-25 20:00:00 33.3 16 Sur 32 Sur 0 -- -- 22
2019-07-25 19:00:00 34.5 14 Sur 31 Sur 0 -- -- 23
2019-07-25 18:00:00 35.9 13 Sur 31 Sur 0 -- -- 22
2019-07-25 17:00:00 37 14 Sur 27 Sur 0 -- -- 19
2019-07-25 16:00:00 37.2 11 Sur 34 Sur 0 -- -- 19
2019-07-25 15:00:00 36.8 11 Sur 28 Sudeste 0 -- -- 20
2019-07-25 14:00:00 36.4 7 Sur 22 Sudeste 0 -- -- 21
2019-07-25 13:00:00 34.1 5 Noroeste 13 Noroeste 0 -- -- 25
2019-07-25 12:00:00 31.7 6 Noroeste 12 Norte 0 -- -- 30
2019-07-25 11:00:00 29.3 5 Norte 10 Norte 0 -- -- 33
2019-07-25 10:00:00 25.6 6 Norte 10 Norte 0 -- -- 40
2019-07-25 09:00:00 21.5 2 Este 7 Este 0 -- -- 53
2019-07-25 08:00:00 19.4 4 Este 17 Nordeste 0 -- -- 59
2019-07-25 07:00:00 19.8 3 Este 13 Nordeste 0 -- -- 56
2019-07-25 06:00:00 20.2 4 Este 10 Nordeste 0 -- -- 55
2019-07-25 05:00:00 21 3 Este 8 Nordeste 0 -- -- 53
2019-07-25 04:00:00 21.5 5 Nordeste 9 Nordeste 0 -- -- 52
2019-07-25 03:00:00 23.1 5 Este 11 Sudeste 0 -- -- 45
2019-07-25 02:00:00 23.7 4 Este 13 Este 0 -- -- 45
2019-07-25 01:00:00 24.4 4 Este 14 Nordeste 0 -- -- 43
2019-07-25 00:00:00 26.2 5 Este 14 Nordeste 0 -- -- 36
2019-07-24 23:00:00 27.3 5 Este 18 Sudeste 0 -- -- 34
2019-07-24 22:00:00 29.8 10 Sudeste 25 Sudeste 0 -- -- 31
2019-07-24 21:00:00 32.3 15 Sur 39 Sur 0 -- -- 23
2019-07-24 20:00:00 33.7 18 Sur 36 Sur 0 -- -- 21
2019-07-24 19:00:00 35 16 Sur 36 Sudeste 0 -- -- 21
2019-07-24 18:00:00 36.3 18 Sur 33 Sudoeste 0 -- -- 19
2019-07-24 17:00:00 37.2 15 Sur 31 Sudoeste 0 -- -- 19
2019-07-24 16:00:00 37.6 11 Sur 25 Sur 0 -- -- 19
2019-07-24 15:00:00 37.2 14 Sur 30 Sur 0 -- -- 20
2019-07-24 14:00:00 36.9 11 Sudeste 28 Sur 0 -- -- 21
2019-07-24 13:00:00 35.8 12 Sudeste 25 Sudeste 0 -- -- 23
2019-07-24 12:00:00 33.3 10 Este 24 Nordeste 0 -- -- 26
2019-07-24 11:00:00 30.7 6 Este 14 Este 0 -- -- 32
2019-07-24 10:00:00 25.7 5 Este 14 Este 0 -- -- 43
2019-07-24 09:00:00 21.7 8 Nordeste 14 Este 0 -- -- 48
2019-07-24 08:00:00 19.3 4 Nordeste 10 Nordeste 0 -- -- 54
2019-07-24 07:00:00 19.3 0 Calma 6 Nordeste 0 -- -- 53
2019-07-24 06:00:00 20.3 2 Sudoeste 10 Nordeste 0 -- -- 53
2019-07-24 05:00:00 21.2 8 Nordeste 15 Nordeste 0 -- -- 47
2019-07-24 04:00:00 21.9 4 Este 13 Nordeste 0 -- -- 47
2019-07-24 03:00:00 22.3 5 Norte 13 Nordeste 0 -- -- 47
2019-07-24 02:00:00 23 4 Este 14 Nordeste 0 -- -- 46
2019-07-24 01:00:00 24.1 6 Este 16 Nordeste 0 -- -- 44
2019-07-24 00:00:00 25.1 8 Nordeste 15 Nordeste 0 -- -- 41